^^
Meteo Knjazevac Station Historical Data
Daily Summary for August 4, 2022 Units:  Both    English   Metric
Daily Weekly Monthly Yearly Custom
  High: Low: Average:
Temperature: 59 °F /  15 °C 36.6 °F /  2.6 °C 49.3 °F /  9.6 °C
Dew Point: 51.6 °F /  10.9 °C 35.5 °F /  1.9 °C 45.5 °F /  7.5 °C
Humidity: 98% 75% 87%
Wind Speed: 7.3mph /  11.7km/h - 2.3mph /  3.7km/h
Wind Gust: 9mph /  14.5km/h - -
Wind- - South
Pressure: 30.10 in /  1019.2 hPa 29.92 in /  1013.1 hPa -
Precipitation: 0.00 in /  0 mm    
Historical Graphs
 
 
Tabular Data for August 4, 2022
Time Temperature Dew Point Pressure Wind Wind Speed Wind Gust Humidity Rainfall Rate (Hourly) solar Conditions
00:04 45.7 °F /  7.6 °C 42.7 °F /  5.9 °C 30.10in /  1019.2hPa North 0.5mph /  0.8km/h 2mph /  3.2km/h 89.4% 0.00in /  0mm 0 W/m2
00:09 45.6 °F /  7.6 °C 42.7 °F /  5.9 °C 30.10in /  1019.2hPa North 0.9mph /  1.4km/h 2mph /  3.2km/h 89.6% 0.00in /  0mm 0 W/m2
00:14 45.4 °F /  7.4 °C 42.6 °F /  5.9 °C 30.09in /  1018.8hPa North 0.3mph /  0.5km/h 2mph /  3.2km/h 90% 0.00in /  0mm 0 W/m2
00:19 45.3 °F /  7.4 °C 42.6 °F /  5.9 °C 30.09in /  1018.8hPa North 1.1mph /  1.8km/h 1.1mph /  1.8km/h 90% 0.00in /  0mm 0 W/m2
00:24 45 °F /  7.2 °C 42.3 °F /  5.7 °C 30.09in /  1018.8hPa NNW 2.1mph /  3.4km/h 2mph /  3.2km/h 90% 0.00in /  0mm 0 W/m2
00:29 45 °F /  7.2 °C 42.2 °F /  5.7 °C 30.09in /  1018.8hPa NNW 2.3mph /  3.7km/h 3mph /  4.8km/h 90% 0.00in /  0mm 0 W/m2
00:34 44.8 °F /  7.1 °C 42 °F /  5.6 °C 30.09in /  1018.8hPa NNE 1.9mph /  3.1km/h 2mph /  3.2km/h 90% 0.00in /  0mm 0 W/m2
00:39 44.8 °F /  7.1 °C 42.1 °F /  5.6 °C 30.09in /  1018.8hPa North 1mph /  1.6km/h 2mph /  3.2km/h 90.4% 0.00in /  0mm 0 W/m2
00:44 44.8 °F /  7.1 °C 42.1 °F /  5.6 °C 30.09in /  1018.8hPa NW 1mph /  1.6km/h 1.1mph /  1.8km/h 90.3% 0.00in /  0mm 0 W/m2
00:49 44.6 °F /  7 °C 41.8 °F /  5.4 °C 30.09in /  1018.8hPa WSW 0.1mph /  0.2km/h 2mph /  3.2km/h 90% 0.00in /  0mm 0 W/m2
00:54 44.4 °F /  6.9 °C 41.7 °F /  5.4 °C 30.09in /  1018.8hPa West 0.8mph /  1.3km/h 1mph /  1.6km/h 90% 0.00in /  0mm 0 W/m2
00:59 44.2 °F /  6.8 °C 41.5 °F /  5.3 °C 30.09in /  1018.8hPa Calm   1mph /  1.6km/h 90% 0.00in /  0mm 0 W/m2
01:04 44.2 °F /  6.8 °C 41.7 °F /  5.4 °C 30.08in /  1018.5hPa Calm     90.9% 0.00in /  0mm 0 W/m2
01:09 44.1 °F /  6.7 °C 41.6 °F /  5.3 °C 30.08in /  1018.5hPa North 0.5mph /  0.8km/h 0.2mph /  0.3km/h 91% 0.00in /  0mm 0 W/m2
01:14 43.9 °F /  6.6 °C 41.5 °F /  5.3 °C 30.08in /  1018.5hPa NNW 1.4mph /  2.3km/h 1.3mph /  2.1km/h 91.4% 0.00in /  0mm 0 W/m2
01:19 43.7 °F /  6.5 °C 41.2 °F /  5.1 °C 30.08in /  1018.5hPa NNW 1mph /  1.6km/h 2mph /  3.2km/h 91% 0.00in /  0mm 0 W/m2
01:24 43.5 °F /  6.4 °C 41.1 °F /  5.1 °C 30.08in /  1018.5hPa NNW 0.2mph /  0.3km/h 2mph /  3.2km/h 91% 0.00in /  0mm 0 W/m2
01:29 43.3 °F /  6.3 °C 40.9 °F /  4.9 °C 30.08in /  1018.5hPa North 0.3mph /  0.5km/h   91% 0.00in /  0mm 0 W/m2
01:34 43.2 °F /  6.2 °C 40.7 °F /  4.8 °C 30.08in /  1018.5hPa NW 0.7mph /  1.1km/h 1mph /  1.6km/h 91% 0.00in /  0mm 0 W/m2
01:39 43.1 °F /  6.2 °C 40.6 °F /  4.8 °C 30.08in /  1018.5hPa West 0.7mph /  1.1km/h 2mph /  3.2km/h 91% 0.00in /  0mm 0 W/m2
01:44 42.8 °F /  6 °C 40.5 °F /  4.7 °C 30.08in /  1018.5hPa WSW 1mph /  1.6km/h 1mph /  1.6km/h 91.4% 0.00in /  0mm 0 W/m2
01:49 42.7 °F /  5.9 °C 40.8 °F /  4.9 °C 30.08in /  1018.5hPa West 1.1mph /  1.8km/h 1mph /  1.6km/h 93% 0.00in /  0mm 0 W/m2
01:54 42.5 °F /  5.8 °C 40.6 °F /  4.8 °C 30.08in /  1018.5hPa West 1.1mph /  1.8km/h 1.6mph /  2.6km/h 93% 0.00in /  0mm 0 W/m2
01:59 42.4 °F /  5.8 °C 40.5 °F /  4.7 °C 30.08in /  1018.5hPa West 1.5mph /  2.4km/h 2mph /  3.2km/h 93% 0.00in /  0mm 0 W/m2
02:04 42.3 °F /  5.7 °C 40.6 °F /  4.8 °C 30.08in /  1018.5hPa NW 2.9mph /  4.7km/h 2.5mph /  4km/h 93.5% 0.00in /  0mm 0 W/m2
02:09 42.3 °F /  5.7 °C 40.8 °F /  4.9 °C 30.08in /  1018.5hPa NNW 0.9mph /  1.4km/h 3mph /  4.8km/h 94.5% 0.00in /  0mm 0 W/m2
02:14 42.3 °F /  5.7 °C 40.9 °F /  4.9 °C 30.08in /  1018.5hPa North 0.1mph /  0.2km/h 1mph /  1.6km/h 95% 0.00in /  0mm 0 W/m2
02:19 42.2 °F /  5.7 °C 40.9 °F /  4.9 °C 30.08in /  1018.5hPa North 1.8mph /  2.9km/h 1mph /  1.6km/h 95% 0.00in /  0mm 0 W/m2
02:24 42.1 °F /  5.6 °C 40.6 °F /  4.8 °C 30.08in /  1018.5hPa NW 1.6mph /  2.6km/h 2mph /  3.2km/h 94.4% 0.00in /  0mm 0 W/m2
02:29 41.9 °F /  5.5 °C 40.1 °F /  4.5 °C 30.08in /  1018.5hPa NW 2mph /  3.2km/h 2mph /  3.2km/h 93.3% 0.00in /  0mm 0 W/m2
02:34 41.7 °F /  5.4 °C 40.2 °F /  4.6 °C 30.08in /  1018.5hPa NNW 2.2mph /  3.5km/h 2mph /  3.2km/h 94.2% 0.00in /  0mm 0 W/m2
02:39 41.7 °F /  5.4 °C 40.4 °F /  4.7 °C 30.08in /  1018.5hPa NNW 0.4mph /  0.6km/h 2mph /  3.2km/h 95% 0.00in /  0mm 0 W/m2
02:44 41.6 °F /  5.3 °C 40.3 °F /  4.6 °C 30.07in /  1018.2hPa WSW 1.8mph /  2.9km/h 1.3mph /  2.1km/h 94.8% 0.00in /  0mm 0 W/m2
02:49 41.4 °F /  5.2 °C 39.8 °F /  4.3 °C 30.07in /  1018.2hPa West 1.8mph /  2.9km/h 2mph /  3.2km/h 94% 0.00in /  0mm 0 W/m2
02:54 41.3 °F /  5.2 °C 39.7 °F /  4.3 °C 30.07in /  1018.2hPa NW 1.4mph /  2.3km/h 2mph /  3.2km/h 94% 0.00in /  0mm 0 W/m2
02:59 41.2 °F /  5.1 °C 39.9 °F /  4.4 °C 30.07in /  1018.2hPa NNW 1.4mph /  2.3km/h 2mph /  3.2km/h 94.9% 0.00in /  0mm 0 W/m2
03:04 41.2 °F /  5.1 °C 39.9 °F /  4.4 °C 30.07in /  1018.2hPa North 0.4mph /  0.6km/h 2mph /  3.2km/h 95% 0.00in /  0mm 0 W/m2
03:09 41 °F /  5 °C 39.7 °F /  4.3 °C 30.07in /  1018.2hPa NNW 0.7mph /  1.1km/h 1mph /  1.6km/h 95% 0.00in /  0mm 0 W/m2
03:14 40.9 °F /  4.9 °C 39.5 °F /  4.2 °C 30.07in /  1018.2hPa NNW 0.4mph /  0.6km/h 2mph /  3.2km/h 94.6% 0.00in /  0mm 0 W/m2
03:19 40.8 °F /  4.9 °C 39.2 °F /  4 °C 30.07in /  1018.2hPa WNW 0.4mph /  0.6km/h 1mph /  1.6km/h 94% 0.00in /  0mm 0 W/m2
03:24 40.6 °F /  4.8 °C 39 °F /  3.9 °C 30.07in /  1018.2hPa Calm   1mph /  1.6km/h 94% 0.00in /  0mm 0 W/m2
03:29 40.4 °F /  4.7 °C 38.8 °F /  3.8 °C 30.06in /  1017.8hPa West 0.3mph /  0.5km/h 0.7mph /  1.1km/h 94% 0.00in /  0mm 0 W/m2
03:34 40.2 °F /  4.6 °C 38.6 °F /  3.7 °C 30.06in /  1017.8hPa WNW 1.7mph /  2.7km/h 2mph /  3.2km/h 94% 0.00in /  0mm 0 W/m2
03:39 40.1 °F /  4.5 °C 38.5 °F /  3.6 °C 30.07in /  1018.2hPa North 1.2mph /  1.9km/h 2mph /  3.2km/h 94% 0.00in /  0mm 0 W/m2
03:44 40 °F /  4.4 °C 38.4 °F /  3.6 °C 30.07in /  1018.2hPa North 0.4mph /  0.6km/h 1mph /  1.6km/h 94% 0.00in /  0mm 0 W/m2
03:49 39.8 °F /  4.3 °C 38.2 °F /  3.4 °C 30.07in /  1018.2hPa West 1.1mph /  1.8km/h 1mph /  1.6km/h 94% 0.00in /  0mm 0 W/m2
03:54 39.6 °F /  4.2 °C 38.1 °F /  3.4 °C 30.07in /  1018.2hPa West 1.6mph /  2.6km/h 1.1mph /  1.8km/h 94% 0.00in /  0mm 0 W/m2
03:59 39.5 °F /  4.2 °C 37.9 °F /  3.3 °C 30.07in /  1018.2hPa NW 1.2mph /  1.9km/h 2mph /  3.2km/h 94% 0.00in /  0mm 0 W/m2
04:04 39.4 °F /  4.1 °C 37.8 °F /  3.2 °C 30.07in /  1018.2hPa NW 2.6mph /  4.2km/h 2.7mph /  4.3km/h 94.2% 0.00in /  0mm 0 W/m2
04:09 39.2 °F /  4 °C 37.9 °F /  3.3 °C 30.07in /  1018.2hPa WNW 2.6mph /  4.2km/h 4mph /  6.4km/h 95% 0.00in /  0mm 0 W/m2
04:14 39.2 °F /  4 °C 37.9 °F /  3.3 °C 30.07in /  1018.2hPa WNW 1.5mph /  2.4km/h 3mph /  4.8km/h 95% 0.00in /  0mm 0 W/m2
04:19 39.2 °F /  4 °C 38.2 °F /  3.4 °C 30.07in /  1018.2hPa NW 0.4mph /  0.6km/h 2mph /  3.2km/h 95.9% 0.00in /  0mm 0 W/m2
04:24 39.2 °F /  4 °C 38.2 °F /  3.4 °C 30.07in /  1018.2hPa North 0.3mph /  0.5km/h 1mph /  1.6km/h 96% 0.00in /  0mm 0 W/m2
04:29 39.1 °F /  3.9 °C 38.1 °F /  3.4 °C 30.07in /  1018.2hPa North 1.6mph /  2.6km/h 2mph /  3.2km/h 96% 0.00in /  0mm 0 W/m2
04:34 39 °F /  3.9 °C 37.8 °F /  3.2 °C 30.07in /  1018.2hPa NNW 0.9mph /  1.4km/h 3mph /  4.8km/h 95.5% 0.00in /  0mm 0 W/m2
04:39 38.8 °F /  3.8 °C 37.5 °F /  3.1 °C 30.07in /  1018.2hPa NNW 0.8mph /  1.3km/h 1mph /  1.6km/h 95% 0.00in /  0mm 0 W/m2
04:44 38.7 °F /  3.7 °C 37.4 °F /  3 °C 30.07in /  1018.2hPa NNW 0.3mph /  0.5km/h 2mph /  3.2km/h 95% 0.00in /  0mm 0 W/m2
04:49 38.7 °F /  3.7 °C 37.6 °F /  3.1 °C 30.07in /  1018.2hPa Calm     95.9% 0.00in /  0mm 0 W/m2
04:54 38.7 °F /  3.7 °C 37.6 °F /  3.1 °C 30.07in /  1018.2hPa NNW 0.6mph /  1km/h 0.2mph /  0.3km/h 96% 0.00in /  0mm 0 W/m2
04:59 38.5 °F /  3.6 °C 37.5 °F /  3.1 °C 30.07in /  1018.2hPa NW 1.3mph /  2.1km/h 1mph /  1.6km/h 96% 0.00in /  0mm 0 W/m2
05:04 38.5 °F /  3.6 °C 37.4 °F /  3 °C 30.07in /  1018.2hPa Calm   2mph /  3.2km/h 96% 0.00in /  0mm 0 W/m2
05:09 38.5 °F /  3.6 °C 37.3 °F /  2.9 °C 30.07in /  1018.2hPa WNW 0.1mph /  0.2km/h   95.5% 0.00in /  0mm 0 W/m2
05:14 38.3 °F /  3.5 °C 37 °F /  2.8 °C 30.06in /  1017.8hPa WNW 1.2mph /  1.9km/h 1.1mph /  1.8km/h 95% 0.00in /  0mm 0 W/m2
05:19 38.1 °F /  3.4 °C 36.8 °F /  2.7 °C 30.07in /  1018.2hPa WNW 0.4mph /  0.6km/h 2mph /  3.2km/h 95% 0.00in /  0mm 0 W/m2
05:24 38 °F /  3.3 °C 36.7 °F /  2.6 °C 30.07in /  1018.2hPa WNW 0.7mph /  1.1km/h 1mph /  1.6km/h 95% 0.00in /  0mm 0 W/m2
05:29 37.8 °F /  3.2 °C 36.5 °F /  2.5 °C 30.07in /  1018.2hPa Calm   1mph /  1.6km/h 95% 0.00in /  0mm 0 W/m2
05:34 37.8 °F /  3.2 °C 36.7 °F /  2.6 °C 30.07in /  1018.2hPa NNW 1mph /  1.6km/h 1.8mph /  2.9km/h 95.9% 0.00in /  0mm 0 W/m2
05:39 37.8 °F /  3.2 °C 36.9 °F /  2.7 °C 30.07in /  1018.2hPa NNW 1.1mph /  1.8km/h 2mph /  3.2km/h 96.9% 0.00in /  0mm 0 W/m2
05:44 37.7 °F /  3.2 °C 36.6 °F /  2.6 °C 30.07in /  1018.2hPa NW 1.6mph /  2.6km/h 1.1mph /  1.8km/h 95.8% 0.00in /  0mm 0 W/m2
05:49 37.5 °F /  3.1 °C 36.2 °F /  2.3 °C 30.07in /  1018.2hPa West 0.5mph /  0.8km/h 2mph /  3.2km/h 95% 0.00in /  0mm 0 W/m2
05:54 37.4 °F /  3 °C 36.1 °F /  2.3 °C 30.07in /  1018.2hPa WNW 0.2mph /  0.3km/h 1mph /  1.6km/h 95% 0.00in /  0mm 0 W/m2
05:59 37.2 °F /  2.9 °C 35.9 °F /  2.2 °C 30.07in /  1018.2hPa NNW 1.1mph /  1.8km/h 0.7mph /  1.1km/h 95% 0.00in /  0mm 0 W/m2
06:04 37.1 °F /  2.8 °C 35.8 °F /  2.1 °C 30.07in /  1018.2hPa NW 1.6mph /  2.6km/h 2mph /  3.2km/h 95% 0.00in /  0mm 2 W/m2
06:09 37 °F /  2.8 °C 35.7 °F /  2.1 °C 30.07in /  1018.2hPa WNW 1.3mph /  2.1km/h 2mph /  3.2km/h 95% 0.00in /  0mm 3 W/m2
06:14 36.9 °F /  2.7 °C 35.6 °F /  2 °C 30.07in /  1018.2hPa NW 2mph /  3.2km/h 2mph /  3.2km/h 95% 0.00in /  0mm 7 W/m2
06:19 36.9 °F /  2.7 °C 35.8 °F /  2.1 °C 30.06in /  1017.8hPa WNW 0.6mph /  1km/h 2mph /  3.2km/h 95.9% 0.00in /  0mm 10 W/m2
06:24 36.9 °F /  2.7 °C 35.8 °F /  2.1 °C 30.07in /  1018.2hPa WNW 2.4mph /  3.9km/h 2mph /  3.2km/h 96% 0.00in /  0mm 14 W/m2
06:29 36.7 °F /  2.6 °C 35.5 °F /  1.9 °C 30.07in /  1018.2hPa West 2.1mph /  3.4km/h 3mph /  4.8km/h 95.4% 0.00in /  0mm 18 W/m2
06:34 36.7 °F /  2.6 °C 35.6 °F /  2 °C 30.07in /  1018.2hPa NW 1.9mph /  3.1km/h 2mph /  3.2km/h 95.9% 0.00in /  0mm 23 W/m2
06:39 36.7 °F /  2.6 °C 35.6 °F /  2 °C 30.07in /  1018.2hPa NNW 1.4mph /  2.3km/h 2mph /  3.2km/h 96% 0.00in /  0mm 28 W/m2
06:44 36.6 °F /  2.6 °C 35.6 °F /  2 °C 30.07in /  1018.2hPa NNW 1mph /  1.6km/h 2mph /  3.2km/h 96% 0.00in /  0mm 36 W/m2
06:49 36.6 °F /  2.6 °C 35.5 °F /  1.9 °C 30.07in /  1018.2hPa NW 2mph /  3.2km/h 2mph /  3.2km/h 95.8% 0.00in /  0mm 42 W/m2
06:54 36.7 °F /  2.6 °C 35.6 °F /  2 °C 30.07in /  1018.2hPa NW 2.2mph /  3.5km/h 2mph /  3.2km/h 96% 0.00in /  0mm 51 W/m2
06:59 36.8 °F /  2.7 °C 35.7 °F /  2.1 °C 30.07in /  1018.2hPa NW 1.8mph /  2.9km/h 2mph /  3.2km/h 96% 0.00in /  0mm 53 W/m2
07:04 36.9 °F /  2.7 °C 35.8 °F /  2.1 °C 30.07in /  1018.2hPa NW 1.8mph /  2.9km/h 2mph /  3.2km/h 96% 0.00in /  0mm 70 W/m2
07:09 37 °F /  2.8 °C 35.9 °F /  2.2 °C 30.07in /  1018.2hPa West 2.3mph /  3.7km/h 3mph /  4.8km/h 96% 0.00in /  0mm 79 W/m2
07:14 37.1 °F /  2.8 °C 36.4 °F /  2.4 °C 30.07in /  1018.2hPa West 2.2mph /  3.5km/h 2.2mph /  3.5km/h 97.2% 0.00in /  0mm 86 W/m2
07:19 37.3 °F /  2.9 °C 36.8 °F /  2.7 °C 30.07in /  1018.2hPa WNW 2.2mph /  3.5km/h 3mph /  4.8km/h 98% 0.00in /  0mm 95 W/m2
07:24 37.5 °F /  3.1 °C 37 °F /  2.8 °C 30.07in /  1018.2hPa WNW 2mph /  3.2km/h 2mph /  3.2km/h 98% 0.00in /  0mm 108 W/m2
07:29 37.9 °F /  3.3 °C 37.3 °F /  2.9 °C 30.07in /  1018.2hPa WNW 2.3mph /  3.7km/h 3mph /  4.8km/h 98% 0.00in /  0mm 113 W/m2
07:34 38.5 °F /  3.6 °C 38 °F /  3.3 °C 30.07in /  1018.2hPa WNW 2.2mph /  3.5km/h 3mph /  4.8km/h 98% 0.00in /  0mm 133 W/m2
07:39 39.3 °F /  4.1 °C 38.7 °F /  3.7 °C 30.07in /  1018.2hPa WNW 2.4mph /  3.9km/h 2mph /  3.2km/h 97.6% 0.00in /  0mm 140 W/m2
07:44 40 °F /  4.4 °C 39 °F /  3.9 °C 30.07in /  1018.2hPa WNW 2mph /  3.2km/h 3mph /  4.8km/h 96% 0.00in /  0mm 159 W/m2
07:49 40.6 °F /  4.8 °C 39.6 °F /  4.2 °C 30.07in /  1018.2hPa WNW 1.8mph /  2.9km/h 2mph /  3.2km/h 96% 0.00in /  0mm 173 W/m2
07:54 41.4 °F /  5.2 °C 40.1 °F /  4.5 °C 30.07in /  1018.2hPa West 1.8mph /  2.9km/h 2mph /  3.2km/h 95.1% 0.00in /  0mm 181 W/m2
07:59 42.2 °F /  5.7 °C 40.7 °F /  4.8 °C 30.07in /  1018.2hPa West 2.2mph /  3.5km/h 3mph /  4.8km/h 94.4% 0.00in /  0mm 205 W/m2
08:04 42.8 °F /  6 °C 41.2 °F /  5.1 °C 30.07in /  1018.2hPa WSW 2.1mph /  3.4km/h 2mph /  3.2km/h 94% 0.00in /  0mm 215 W/m2
08:09 43.5 °F /  6.4 °C 41.8 °F /  5.4 °C 30.07in /  1018.2hPa WSW 1.3mph /  2.1km/h 2mph /  3.2km/h 93.5% 0.00in /  0mm 242 W/m2
08:14 44.1 °F /  6.7 °C 42.2 °F /  5.7 °C 30.07in /  1018.2hPa WSW 1.5mph /  2.4km/h 2mph /  3.2km/h 93% 0.00in /  0mm 259 W/m2
08:19 44.7 °F /  7.1 °C 42.8 °F /  6 °C 30.06in /  1017.8hPa WSW 2.2mph /  3.5km/h 2mph /  3.2km/h 93% 0.00in /  0mm 269 W/m2
08:24 45 °F /  7.2 °C 43.1 °F /  6.2 °C 30.06in /  1017.8hPa SW 1.9mph /  3.1km/h 2mph /  3.2km/h 93% 0.00in /  0mm 267 W/m2
08:29 45.6 °F /  7.6 °C 43.7 °F /  6.5 °C 30.06in /  1017.8hPa WSW 2.6mph /  4.2km/h 2.2mph /  3.5km/h 93% 0.00in /  0mm 295 W/m2
08:34 46.4 °F /  8 °C 44 °F /  6.7 °C 30.06in /  1017.8hPa WSW 2.4mph /  3.9km/h 3mph /  4.8km/h 91.5% 0.00in /  0mm 322 W/m2
08:39 46.9 °F /  8.3 °C 44.6 °F /  7 °C 30.06in /  1017.8hPa WSW 2mph /  3.2km/h 2mph /  3.2km/h 91.6% 0.00in /  0mm 317 W/m2
08:44 47.3 °F /  8.5 °C 44.8 °F /  7.1 °C 30.06in /  1017.8hPa SW 1.9mph /  3.1km/h 2mph /  3.2km/h 91% 0.00in /  0mm 397 W/m2
08:49 48.2 °F /  9 °C 45.7 °F /  7.6 °C 30.06in /  1017.8hPa SW 2.4mph /  3.9km/h 2mph /  3.2km/h 91% 0.00in /  0mm 402 W/m2
08:54 48.7 °F /  9.3 °C 46.2 °F /  7.9 °C 30.06in /  1017.8hPa WSW 2.1mph /  3.4km/h 3mph /  4.8km/h 91% 0.00in /  0mm 330 W/m2
08:59 49.1 °F /  9.5 °C 46.5 °F /  8.1 °C 30.06in /  1017.8hPa WSW 2.2mph /  3.5km/h 2mph /  3.2km/h 90.5% 0.00in /  0mm 371 W/m2
09:04 49.5 °F /  9.7 °C 46.6 °F /  8.1 °C 30.06in /  1017.8hPa West 2.2mph /  3.5km/h 2mph /  3.2km/h 90% 0.00in /  0mm 410 W/m2
09:09 49.5 °F /  9.7 °C 46.6 °F /  8.1 °C 30.05in /  1017.5hPa WNW 2.3mph /  3.7km/h 3mph /  4.8km/h 90% 0.00in /  0mm 382 W/m2
09:14 49.7 °F /  9.8 °C 46.7 °F /  8.2 °C 30.05in /  1017.5hPa WNW 2mph /  3.2km/h 3mph /  4.8km/h 89.4% 0.00in /  0mm 319 W/m2
09:19 49.8 °F /  9.9 °C 46.7 °F /  8.2 °C 30.05in /  1017.5hPa NW 1.2mph /  1.9km/h 2mph /  3.2km/h 89% 0.00in /  0mm 174 W/m2
09:24 49.7 °F /  9.8 °C 46.6 °F /  8.1 °C 30.05in /  1017.5hPa NNW 2.6mph /  4.2km/h 2mph /  3.2km/h 89% 0.00in /  0mm 174 W/m2
09:29 49.5 °F /  9.7 °C 46.4 °F /  8 °C 30.05in /  1017.5hPa North 2.1mph /  3.4km/h 3mph /  4.8km/h 89% 0.00in /  0mm 267 W/m2
09:34 49.3 °F /  9.6 °C 46.4 °F /  8 °C 30.05in /  1017.5hPa NNE 3.2mph /  5.1km/h 3mph /  4.8km/h 89.7% 0.00in /  0mm 412 W/m2
09:39 50.1 °F /  10.1 °C 47.2 °F /  8.4 °C 30.05in /  1017.5hPa NNE 2.4mph /  3.9km/h 4mph /  6.4km/h 89.7% 0.00in /  0mm 430 W/m2
09:44 51.2 °F /  10.7 °C 48 °F /  8.9 °C 30.04in /  1017.2hPa NNE 3.8mph /  6.1km/h 3.6mph /  5.8km/h 88.6% 0.00in /  0mm 480 W/m2
09:49 52 °F /  11.1 °C 48 °F /  8.9 °C 30.04in /  1017.2hPa NNE 4.3mph /  6.9km/h 6mph /  9.7km/h 86.2% 0.00in /  0mm 483 W/m2
09:54 52.3 °F /  11.3 °C 48.3 °F /  9.1 °C 30.04in /  1017.2hPa NNE 3.4mph /  5.5km/h 5mph /  8km/h 86% 0.00in /  0mm 459 W/m2
09:59 53 °F /  11.7 °C 48.7 °F /  9.3 °C 30.04in /  1017.2hPa North 3.1mph /  5km/h 4mph /  6.4km/h 85.4% 0.00in /  0mm 446 W/m2
10:04 53.4 °F /  11.9 °C 48.7 °F /  9.3 °C 30.04in /  1017.2hPa North 4.1mph /  6.6km/h 4mph /  6.4km/h 84.1% 0.00in /  0mm 399 W/m2
10:09 53.9 °F /  12.2 °C 49.2 °F /  9.6 °C 30.04in /  1017.2hPa NNE 4.5mph /  7.2km/h 6mph /  9.7km/h 84% 0.00in /  0mm 381 W/m2
10:14 54.2 °F /  12.3 °C 49.3 °F /  9.6 °C 30.04in /  1017.2hPa NNE 5.2mph /  8.4km/h 6mph /  9.7km/h 83.2% 0.00in /  0mm 374 W/m2
10:19 54.1 °F /  12.3 °C 49.2 °F /  9.6 °C 30.04in /  1017.2hPa NNE 3.7mph /  6km/h 7mph /  11.3km/h 83.2% 0.00in /  0mm 326 W/m2
10:24 54.8 °F /  12.7 °C 49.8 °F /  9.9 °C 30.03in /  1016.8hPa NNE 5.5mph /  8.9km/h 5mph /  8km/h 83.1% 0.00in /  0mm 330 W/m2
10:29 55.7 °F /  13.2 °C 50 °F /  10 °C 30.03in /  1016.8hPa NNE 4.1mph /  6.6km/h 7mph /  11.3km/h 81.2% 0.00in /  0mm 439 W/m2
10:34 56.2 °F /  13.4 °C 50.2 °F /  10.1 °C 30.03in /  1016.8hPa NNE 6.4mph /  10.3km/h 6mph /  9.7km/h 80.1% 0.00in /  0mm 418 W/m2
10:39 56.5 °F /  13.6 °C 50.3 °F /  10.2 °C 30.02in /  1016.5hPa NNE 5.3mph /  8.5km/h 9mph /  14.5km/h 79.7% 0.00in /  0mm 468 W/m2
10:44 56.7 °F /  13.7 °C 50.3 °F /  10.2 °C 30.02in /  1016.5hPa NNE 5.7mph /  9.2km/h 7mph /  11.3km/h 79% 0.00in /  0mm 465 W/m2
10:49 56.4 °F /  13.6 °C 50 °F /  10 °C 30.02in /  1016.5hPa North 2.8mph /  4.5km/h 7mph /  11.3km/h 79% 0.00in /  0mm 424 W/m2
10:54 56.6 °F /  13.7 °C 50.2 °F /  10.1 °C 30.01in /  1016.1hPa North 2.8mph /  4.5km/h 4mph /  6.4km/h 79.4% 0.00in /  0mm 459 W/m2
10:59 56.8 °F /  13.8 °C 50.4 °F /  10.2 °C 30.01in /  1016.1hPa North 5.3mph /  8.5km/h 4mph /  6.4km/h 79% 0.00in /  0mm 512 W/m2
11:04 57.1 °F /  13.9 °C 50.5 °F /  10.3 °C 30.01in /  1016.1hPa North 4.5mph /  7.2km/h 6mph /  9.7km/h 78.6% 0.00in /  0mm 649 W/m2
11:09 57.7 °F /  14.3 °C 50.9 °F /  10.5 °C 30.01in /  1016.1hPa North 4.9mph /  7.9km/h 6mph /  9.7km/h 78% 0.00in /  0mm 531 W/m2
11:14 58.3 °F /  14.6 °C 51 °F /  10.6 °C 30.01in /  1016.1hPa NNE 4.5mph /  7.2km/h 6mph /  9.7km/h 76.5% 0.00in /  0mm 520 W/m2
11:19 58.5 °F /  14.7 °C 50.6 °F /  10.3 °C 30.00in /  1015.8hPa NNE 5.2mph /  8.4km/h 6mph /  9.7km/h 75% 0.00in /  0mm 345 W/m2
11:24 58.4 °F /  14.7 °C 50.5 °F /  10.3 °C 30.00in /  1015.8hPa NNE 5.7mph /  9.2km/h 6mph /  9.7km/h 75% 0.00in /  0mm 319 W/m2
11:29 58 °F /  14.4 °C 50.1 °F /  10.1 °C 29.99in /  1015.5hPa NE 5.1mph /  8.2km/h 7mph /  11.3km/h 75% 0.00in /  0mm 227 W/m2
11:34 57.9 °F /  14.4 °C 50 °F /  10 °C 29.99in /  1015.5hPa NE 4.8mph /  7.7km/h 7mph /  11.3km/h 75% 0.00in /  0mm 220 W/m2
11:39 57.8 °F /  14.3 °C 49.9 °F /  9.9 °C 29.99in /  1015.5hPa NNE 4.2mph /  6.8km/h 6mph /  9.7km/h 75% 0.00in /  0mm 219 W/m2
11:44 57.7 °F /  14.3 °C 49.9 °F /  9.9 °C 29.99in /  1015.5hPa NNE 3.8mph /  6.1km/h 6mph /  9.7km/h 75% 0.00in /  0mm 219 W/m2
11:49 57.6 °F /  14.2 °C 49.8 °F /  9.9 °C 29.99in /  1015.5hPa NNE 3.4mph /  5.5km/h 5mph /  8km/h 75.2% 0.00in /  0mm 211 W/m2
11:54 57.6 °F /  14.2 °C 50.3 °F /  10.2 °C 29.98in /  1015.1hPa NNE 2.7mph /  4.3km/h 4mph /  6.4km/h 76.8% 0.00in /  0mm 194 W/m2
11:59 57.6 °F /  14.2 °C 50.4 °F /  10.2 °C 29.98in /  1015.1hPa NNE 3.5mph /  5.6km/h 4mph /  6.4km/h 77% 0.00in /  0mm 183 W/m2
12:04 57.7 °F /  14.3 °C 50.6 °F /  10.3 °C 29.98in /  1015.1hPa NNE 4.2mph /  6.8km/h 5mph /  8km/h 77% 0.00in /  0mm 176 W/m2
12:09 57.7 °F /  14.3 °C 50 °F /  10 °C 29.98in /  1015.1hPa NNE 4.7mph /  7.6km/h 5mph /  8km/h 75.4% 0.00in /  0mm 158 W/m2
12:14 57.7 °F /  14.3 °C 50.5 °F /  10.3 °C 29.98in /  1015.1hPa NNE 4.5mph /  7.2km/h 6mph /  9.7km/h 76.8% 0.00in /  0mm 137 W/m2
12:19 57.7 °F /  14.3 °C 50.5 °F /  10.3 °C 29.98in /  1015.1hPa NNE 5.2mph /  8.4km/h 5mph /  8km/h 76.8% 0.00in /  0mm 124 W/m2
12:24 57.7 °F /  14.3 °C 50.1 °F /  10.1 °C 29.98in /  1015.1hPa NNE 4.7mph /  7.6km/h 6mph /  9.7km/h 75.4% 0.00in /  0mm 127 W/m2
12:29 57.7 °F /  14.3 °C 50.5 °F /  10.3 °C 29.98in /  1015.1hPa NNE 5.5mph /  8.9km/h 6mph /  9.7km/h 76.6% 0.00in /  0mm 127 W/m2
12:34 57.6 °F /  14.2 °C 50.4 °F /  10.2 °C 29.98in /  1015.1hPa NNE 6.7mph /  10.8km/h 7mph /  11.3km/h 77% 0.00in /  0mm 120 W/m2
12:39 57.6 °F /  14.2 °C 50.3 °F /  10.2 °C 29.97in /  1014.8hPa NNE 6.3mph /  10.1km/h 8mph /  12.9km/h 77% 0.00in /  0mm 109 W/m2
12:44 57.4 °F /  14.1 °C 50.2 °F /  10.1 °C 29.97in /  1014.8hPa NNE 5.4mph /  8.7km/h 7mph /  11.3km/h 77% 0.00in /  0mm 112 W/m2
12:49 57.4 °F /  14.1 °C 50.2 °F /  10.1 °C 29.97in /  1014.8hPa North 4.2mph /  6.8km/h 6mph /  9.7km/h 77% 0.00in /  0mm 119 W/m2
12:54 57.5 °F /  14.2 °C 50.4 °F /  10.2 °C 29.97in /  1014.8hPa North 4.9mph /  7.9km/h 5mph /  8km/h 77.2% 0.00in /  0mm 146 W/m2
12:59 57.6 °F /  14.2 °C 50.6 °F /  10.3 °C 29.97in /  1014.8hPa North 4.3mph /  6.9km/h 6mph /  9.7km/h 77.4% 0.00in /  0mm 210 W/m2
13:04 57.8 °F /  14.3 °C 50.7 °F /  10.4 °C 29.97in /  1014.8hPa North 4.2mph /  6.8km/h 5mph /  8km/h 77% 0.00in /  0mm 298 W/m2
13:09 58.3 °F /  14.6 °C 51.1 °F /  10.6 °C 29.97in /  1014.8hPa North 4.4mph /  7.1km/h 5mph /  8km/h 77% 0.00in /  0mm 276 W/m2
13:14 58.6 °F /  14.8 °C 51.4 °F /  10.8 °C 29.96in /  1014.4hPa NNE 4.9mph /  7.9km/h 5mph /  8km/h 77% 0.00in /  0mm 219 W/m2
13:19 58.6 °F /  14.8 °C 51.4 °F /  10.8 °C 29.96in /  1014.4hPa NNE 5.8mph /  9.3km/h 6mph /  9.7km/h 77% 0.00in /  0mm 182 W/m2
13:24 58.6 °F /  14.8 °C 51.4 °F /  10.8 °C 29.96in /  1014.4hPa NNE 5.7mph /  9.2km/h 7mph /  11.3km/h 77% 0.00in /  0mm 164 W/m2
13:29 58.6 °F /  14.8 °C 51.4 °F /  10.8 °C 29.96in /  1014.4hPa NNE 3.8mph /  6.1km/h 7mph /  11.3km/h 77% 0.00in /  0mm 146 W/m2
13:34 58.6 °F /  14.8 °C 51.4 °F /  10.8 °C 29.96in /  1014.4hPa North 5.8mph /  9.3km/h 5mph /  8km/h 77% 0.00in /  0mm 134 W/m2
13:39 58.6 °F /  14.8 °C 51.4 °F /  10.8 °C 29.96in /  1014.4hPa North 5.8mph /  9.3km/h 7mph /  11.3km/h 77% 0.00in /  0mm 145 W/m2
13:44 58.5 °F /  14.7 °C 51.3 °F /  10.7 °C 29.96in /  1014.4hPa North 6.3mph /  10.1km/h 7mph /  11.3km/h 77% 0.00in /  0mm 147 W/m2
13:49 58.5 °F /  14.7 °C 51.3 °F /  10.7 °C 29.96in /  1014.4hPa NNE 7.3mph /  11.7km/h 7mph /  11.3km/h 77% 0.00in /  0mm 146 W/m2
13:54 58.4 °F /  14.7 °C 51.2 °F /  10.7 °C 29.96in /  1014.4hPa NNE 6.1mph /  9.8km/h 8mph /  12.9km/h 77% 0.00in /  0mm 213 W/m2
13:59 58.5 °F /  14.7 °C 51.3 °F /  10.7 °C 29.96in /  1014.4hPa NNE 5.1mph /  8.2km/h 7mph /  11.3km/h 77% 0.00in /  0mm 213 W/m2
14:04 58.5 °F /  14.7 °C 51.3 °F /  10.7 °C 29.96in /  1014.4hPa NNE 5.7mph /  9.2km/h 6mph /  9.7km/h 77% 0.00in /  0mm 161 W/m2
14:09 58.5 °F /  14.7 °C 51.3 °F /  10.7 °C 29.95in /  1014.1hPa NNE 6.1mph /  9.8km/h 7mph /  11.3km/h 77% 0.00in /  0mm 276 W/m2
14:14 58.7 °F /  14.8 °C 51.5 °F /  10.8 °C 29.95in /  1014.1hPa NNE 4.9mph /  7.9km/h 6mph /  9.7km/h 77% 0.00in /  0mm 257 W/m2
14:19 58.8 °F /  14.9 °C 51.1 °F /  10.6 °C 29.95in /  1014.1hPa NNE 4.6mph /  7.4km/h 6mph /  9.7km/h 75.5% 0.00in /  0mm 147 W/m2
14:24 58.8 °F /  14.9 °C 50.9 °F /  10.5 °C 29.95in /  1014.1hPa North 4mph /  6.4km/h 5mph /  8km/h 75% 0.00in /  0mm 131 W/m2
14:29 58.6 °F /  14.8 °C 51.1 °F /  10.6 °C 29.95in /  1014.1hPa North 4.2mph /  6.8km/h 5mph /  8km/h 76.1% 0.00in /  0mm 240 W/m2
14:34 58.8 °F /  14.9 °C 51.6 °F /  10.9 °C 29.95in /  1014.1hPa North 5.2mph /  8.4km/h 6mph /  9.7km/h 77% 0.00in /  0mm 247 W/m2
14:39 58.8 °F /  14.9 °C 50.9 °F /  10.5 °C 29.95in /  1014.1hPa NNE 5mph /  8km/h 6mph /  9.7km/h 75.1% 0.00in /  0mm 186 W/m2
14:44 58.9 °F /  14.9 °C 51 °F /  10.6 °C 29.95in /  1014.1hPa NNE 4.5mph /  7.2km/h 6mph /  9.7km/h 75% 0.00in /  0mm 221 W/m2
14:49 59 °F /  15 °C 51.1 °F /  10.6 °C 29.94in /  1013.8hPa NNE 5.4mph /  8.7km/h 6mph /  9.7km/h 75% 0.00in /  0mm 170 W/m2
14:54 59 °F /  15 °C 51.1 °F /  10.6 °C 29.94in /  1013.8hPa NNE 4.7mph /  7.6km/h 6mph /  9.7km/h 75% 0.00in /  0mm 175 W/m2
14:59 59 °F /  15 °C 51.1 °F /  10.6 °C 29.94in /  1013.8hPa North 4.3mph /  6.9km/h 6mph /  9.7km/h 75% 0.00in /  0mm 169 W/m2
15:04 59 °F /  15 °C 51.1 °F /  10.6 °C 29.94in /  1013.8hPa North 4.4mph /  7.1km/h 5mph /  8km/h 75% 0.00in /  0mm 146 W/m2
15:09 59 °F /  15 °C 51.1 °F /  10.6 °C 29.94in /  1013.8hPa NNE 3.8mph /  6.1km/h 5mph /  8km/h 75% 0.00in /  0mm 116 W/m2
15:14 59 °F /  15 °C 51.1 °F /  10.6 °C 29.94in /  1013.8hPa NNE 3.4mph /  5.5km/h 4mph /  6.4km/h 75% 0.00in /  0mm 84 W/m2
15:19 58.9 °F /  14.9 °C 51 °F /  10.6 °C 29.94in /  1013.8hPa North 3.9mph /  6.3km/h 4mph /  6.4km/h 75% 0.00in /  0mm 76 W/m2
15:24 58.6 °F /  14.8 °C 50.9 °F /  10.5 °C 29.94in /  1013.8hPa North 4.3mph /  6.9km/h 5mph /  8km/h 75.5% 0.00in /  0mm 69 W/m2
15:29 58.4 °F /  14.7 °C 51.2 °F /  10.7 °C 29.94in /  1013.8hPa North 3.4mph /  5.5km/h 5mph /  8km/h 77% 0.00in /  0mm 58 W/m2
15:34 58.2 °F /  14.6 °C 51 °F /  10.6 °C 29.94in /  1013.8hPa North 4mph /  6.4km/h 4mph /  6.4km/h 77% 0.00in /  0mm 45 W/m2
15:39 57.9 °F /  14.4 °C 50.8 °F /  10.4 °C 29.94in /  1013.8hPa North 3.3mph /  5.3km/h 5mph /  8km/h 77% 0.00in /  0mm 34 W/m2
15:44 57.7 °F /  14.3 °C 50.6 °F /  10.3 °C 29.94in /  1013.8hPa North 3.3mph /  5.3km/h 4mph /  6.4km/h 77.2% 0.00in /  0mm 25 W/m2
15:49 57.4 °F /  14.1 °C 50.6 °F /  10.3 °C 29.93in /  1013.4hPa North 3.6mph /  5.8km/h 4mph /  6.4km/h 78% 0.00in /  0mm 20 W/m2
15:54 57.2 °F /  14 °C 50.4 °F /  10.2 °C 29.93in /  1013.4hPa North 3.5mph /  5.6km/h 4mph /  6.4km/h 78% 0.00in /  0mm 17 W/m2
15:59 56.9 °F /  13.8 °C 50.1 °F /  10.1 °C 29.93in /  1013.4hPa North 4.1mph /  6.6km/h 4mph /  6.4km/h 78% 0.00in /  0mm 14 W/m2
16:04 56.8 °F /  13.8 °C 50.3 °F /  10.2 °C 29.93in /  1013.4hPa NNE 4.1mph /  6.6km/h 5mph /  8km/h 78.8% 0.00in /  0mm 10 W/m2
16:09 56.6 °F /  13.7 °C 50.1 °F /  10.1 °C 29.93in /  1013.4hPa North 4.3mph /  6.9km/h 5mph /  8km/h 79% 0.00in /  0mm 5 W/m2
16:14 56.3 °F /  13.5 °C 49.9 °F /  9.9 °C 29.93in /  1013.4hPa North 4.7mph /  7.6km/h 5mph /  8km/h 79% 0.00in /  0mm 4 W/m2
16:19 56.2 °F /  13.4 °C 49.8 °F /  9.9 °C 29.93in /  1013.4hPa North 3.8mph /  6.1km/h 6mph /  9.7km/h 79% 0.00in /  0mm 3 W/m2
16:24 56 °F /  13.3 °C 49.9 °F /  9.9 °C 29.94in /  1013.8hPa North 3.4mph /  5.5km/h 5mph /  8km/h 79.7% 0.00in /  0mm 1 W/m2
16:29 55.9 °F /  13.3 °C 49.9 °F /  9.9 °C 29.94in /  1013.8hPa North 3mph /  4.8km/h 5mph /  8km/h 80% 0.00in /  0mm 0 W/m2
16:34 55.8 °F /  13.2 °C 49.7 °F /  9.8 °C 29.94in /  1013.8hPa North 3.2mph /  5.1km/h 3mph /  4.8km/h 80% 0.00in /  0mm 0 W/m2
16:39 55.7 °F /  13.2 °C 49.6 °F /  9.8 °C 29.94in /  1013.8hPa North 3.1mph /  5km/h 3mph /  4.8km/h 80% 0.00in /  0mm 0 W/m2
16:44 55.6 °F /  13.1 °C 49.5 °F /  9.7 °C 29.94in /  1013.8hPa North 2.9mph /  4.7km/h 3mph /  4.8km/h 80% 0.00in /  0mm 0 W/m2
16:49 55.5 °F /  13.1 °C 49.6 °F /  9.8 °C 29.94in /  1013.8hPa North 2.2mph /  3.5km/h 3mph /  4.8km/h 80.6% 0.00in /  0mm 0 W/m2
16:54 55.4 °F /  13 °C 49.7 °F /  9.8 °C 29.94in /  1013.8hPa North 2.1mph /  3.4km/h 2mph /  3.2km/h 81% 0.00in /  0mm 0 W/m2
16:59 55.2 °F /  12.9 °C 49.5 °F /  9.7 °C 29.94in /  1013.8hPa NE 2.2mph /  3.5km/h 2.2mph /  3.5km/h 81% 0.00in /  0mm 0 W/m2
17:04 55.1 °F /  12.8 °C 49.3 °F /  9.6 °C 29.94in /  1013.8hPa NE 1.6mph /  2.6km/h 3mph /  4.8km/h 81% 0.00in /  0mm 0 W/m2
17:09 55 °F /  12.8 °C 49.3 °F /  9.6 °C 29.94in /  1013.8hPa NNE 1.1mph /  1.8km/h 1mph /  1.6km/h 81% 0.00in /  0mm 0 W/m2
17:14 54.9 °F /  12.7 °C 49.6 °F /  9.8 °C 29.94in /  1013.8hPa WSW 1mph /  1.6km/h 1mph /  1.6km/h 82.3% 0.00in /  0mm 0 W/m2
17:19 54.8 °F /  12.7 °C 49.6 °F /  9.8 °C 29.94in /  1013.8hPa South 0.1mph /  0.2km/h 2mph /  3.2km/h 82.6% 0.00in /  0mm 0 W/m2
17:24 54.6 °F /  12.6 °C 49.5 °F /  9.7 °C 29.94in /  1013.8hPa South 1.3mph /  2.1km/h 1mph /  1.6km/h 83% 0.00in /  0mm 0 W/m2
17:29 54.3 °F /  12.4 °C 49.3 °F /  9.6 °C 29.94in /  1013.8hPa SE 1.9mph /  3.1km/h 2mph /  3.2km/h 83% 0.00in /  0mm 0 W/m2
17:34 54.3 °F /  12.4 °C 49.3 °F /  9.6 °C 29.94in /  1013.8hPa SE 0.3mph /  0.5km/h 2mph /  3.2km/h 83% 0.00in /  0mm 0 W/m2
17:39 54.1 °F /  12.3 °C 49.2 °F /  9.6 °C 29.94in /  1013.8hPa SE 1.5mph /  2.4km/h 1.1mph /  1.8km/h 83.3% 0.00in /  0mm 0 W/m2
17:44 54.1 °F /  12.3 °C 49.3 °F /  9.6 °C 29.94in /  1013.8hPa South 2.1mph /  3.4km/h 2mph /  3.2km/h 84% 0.00in /  0mm 0 W/m2
17:49 54 °F /  12.2 °C 49.2 °F /  9.6 °C 29.94in /  1013.8hPa SSW 2.4mph /  3.9km/h 2.2mph /  3.5km/h 84% 0.00in /  0mm 0 W/m2
17:54 53.8 °F /  12.1 °C 49.1 °F /  9.5 °C 29.94in /  1013.8hPa SSW 2.6mph /  4.2km/h 3mph /  4.8km/h 84% 0.00in /  0mm 0 W/m2
17:59 53.6 °F /  12 °C 48.9 °F /  9.4 °C 29.94in /  1013.8hPa South 2mph /  3.2km/h 3mph /  4.8km/h 84% 0.00in /  0mm 0 W/m2
18:04 53.6 °F /  12 °C 48.9 °F /  9.4 °C 29.94in /  1013.8hPa NNE 1.8mph /  2.9km/h 3mph /  4.8km/h 84% 0.00in /  0mm 0 W/m2
18:09 53.5 °F /  11.9 °C 48.8 °F /  9.3 °C 29.94in /  1013.8hPa NNW 1.4mph /  2.3km/h 2mph /  3.2km/h 84% 0.00in /  0mm 0 W/m2
18:14 53.3 °F /  11.8 °C 48.9 °F /  9.4 °C 29.94in /  1013.8hPa WSW 0.8mph /  1.3km/h 2mph /  3.2km/h 84.8% 0.00in /  0mm 0 W/m2
18:19 53.2 °F /  11.8 °C 48.8 °F /  9.3 °C 29.94in /  1013.8hPa West 1.3mph /  2.1km/h 2mph /  3.2km/h 85% 0.00in /  0mm 0 W/m2
18:24 53.1 °F /  11.7 °C 48.7 °F /  9.3 °C 29.94in /  1013.8hPa NW 1.3mph /  2.1km/h 2mph /  3.2km/h 85% 0.00in /  0mm 0 W/m2
18:29 53.1 °F /  11.7 °C 48.7 °F /  9.3 °C 29.94in /  1013.8hPa North 0.9mph /  1.4km/h 3mph /  4.8km/h 85% 0.00in /  0mm 0 W/m2
18:34 53 °F /  11.7 °C 48.6 °F /  9.2 °C 29.94in /  1013.8hPa North 1mph /  1.6km/h 2mph /  3.2km/h 85% 0.00in /  0mm 0 W/m2
18:39 52.9 °F /  11.6 °C 48.5 °F /  9.2 °C 29.94in /  1013.8hPa North 0.9mph /  1.4km/h 2mph /  3.2km/h 85% 0.00in /  0mm 0 W/m2
18:44 52.9 °F /  11.6 °C 48.5 °F /  9.2 °C 29.94in /  1013.8hPa Calm   1mph /  1.6km/h 85% 0.00in /  0mm 0 W/m2
18:49 52.9 °F /  11.6 °C 48.7 °F /  9.3 °C 29.94in /  1013.8hPa WSW 1.5mph /  2.4km/h 1.8mph /  2.9km/h 85.7% 0.00in /  0mm 0 W/m2
18:54 52.7 °F /  11.5 °C 48.6 °F /  9.2 °C 29.94in /  1013.8hPa NW 2.1mph /  3.4km/h 2mph /  3.2km/h 86% 0.00in /  0mm 0 W/m2
18:59 52.5 °F /  11.4 °C 48.5 °F /  9.2 °C 29.94in /  1013.8hPa NW 2.2mph /  3.5km/h 2mph /  3.2km/h 86% 0.00in /  0mm 0 W/m2
19:04 52.4 °F /  11.3 °C 48.4 °F /  9.1 °C 29.94in /  1013.8hPa West 0.4mph /  0.6km/h 2mph /  3.2km/h 86% 0.00in /  0mm 0 W/m2
19:09 52.2 °F /  11.2 °C 48.2 °F /  9 °C 29.94in /  1013.8hPa West 2.2mph /  3.5km/h 2mph /  3.2km/h 86% 0.00in /  0mm 0 W/m2
19:14 52.2 °F /  11.2 °C 48.1 °F /  8.9 °C 29.94in /  1013.8hPa WNW 1.8mph /  2.9km/h 3mph /  4.8km/h 86% 0.00in /  0mm 0 W/m2
19:19 52.2 °F /  11.2 °C 48.1 °F /  8.9 °C 29.94in /  1013.8hPa WNW 0.6mph /  1km/h 2mph /  3.2km/h 86% 0.00in /  0mm 0 W/m2
19:24 52.1 °F /  11.2 °C 48.1 °F /  8.9 °C 29.94in /  1013.8hPa WNW 0.4mph /  0.6km/h 2mph /  3.2km/h 86.4% 0.00in /  0mm 0 W/m2
19:29 52 °F /  11.1 °C 47.9 °F /  8.8 °C 29.94in /  1013.8hPa Calm   1mph /  1.6km/h 86% 0.00in /  0mm 0 W/m2
19:34 51.8 °F /  11 °C 48 °F /  8.9 °C 29.94in /  1013.8hPa North 0.6mph /  1km/h 0.2mph /  0.3km/h 86.9% 0.00in /  0mm 0 W/m2
19:39 51.7 °F /  10.9 °C 48 °F /  8.9 °C 29.94in /  1013.8hPa North 1.5mph /  2.4km/h 3mph /  4.8km/h 87% 0.00in /  0mm 0 W/m2
19:44 51.6 °F /  10.9 °C 47.6 °F /  8.7 °C 29.94in /  1013.8hPa North 0.7mph /  1.1km/h 3mph /  4.8km/h 86.1% 0.00in /  0mm 0 W/m2
19:49 51.4 °F /  10.8 °C 47.7 °F /  8.7 °C 29.95in /  1014.1hPa Calm   1mph /  1.6km/h 86.9% 0.00in /  0mm 0 W/m2
19:54 51.4 °F /  10.8 °C 47.9 °F /  8.8 °C 29.95in /  1014.1hPa West 0.7mph /  1.1km/h 1mph /  1.6km/h 88% 0.00in /  0mm 0 W/m2
19:59 51.3 °F /  10.7 °C 47.9 °F /  8.8 °C 29.94in /  1013.8hPa NNW 1mph /  1.6km/h 1.8mph /  2.9km/h 88.2% 0.00in /  0mm 0 W/m2
20:04 51.3 °F /  10.7 °C 48.1 °F /  8.9 °C 29.94in /  1013.8hPa NNE 3.2mph /  5.1km/h 2.9mph /  4.7km/h 89% 0.00in /  0mm 0 W/m2
20:09 51.4 °F /  10.8 °C 48.3 °F /  9.1 °C 29.94in /  1013.8hPa ENE 2.9mph /  4.7km/h 5mph /  8km/h 89% 0.00in /  0mm 0 W/m2
20:14 51.4 °F /  10.8 °C 48.3 °F /  9.1 °C 29.94in /  1013.8hPa NE 2.7mph /  4.3km/h 3mph /  4.8km/h 89.1% 0.00in /  0mm 0 W/m2
20:19 51.4 °F /  10.8 °C 48.6 °F /  9.2 °C 29.94in /  1013.8hPa NW 2.9mph /  4.7km/h 3mph /  4.8km/h 89.9% 0.00in /  0mm 0 W/m2
20:24 51.3 °F /  10.7 °C 48.4 °F /  9.1 °C 29.94in /  1013.8hPa NW 2.1mph /  3.4km/h 3mph /  4.8km/h 90% 0.00in /  0mm 0 W/m2
20:29 51.3 °F /  10.7 °C 48.3 °F /  9.1 °C 29.94in /  1013.8hPa NNW 1.6mph /  2.6km/h 2mph /  3.2km/h 89.7% 0.00in /  0mm 0 W/m2
20:34 51.3 °F /  10.7 °C 48.2 °F /  9 °C 29.94in /  1013.8hPa North 1.2mph /  1.9km/h 2mph /  3.2km/h 89.2% 0.00in /  0mm 0 W/m2
20:39 51.2 °F /  10.7 °C 48.3 °F /  9.1 °C 29.94in /  1013.8hPa North 1mph /  1.6km/h 2mph /  3.2km/h 90% 0.00in /  0mm 0 W/m2
20:44 51.1 °F /  10.6 °C 48.2 °F /  9 °C 29.94in /  1013.8hPa Calm   1mph /  1.6km/h 90% 0.00in /  0mm 0 W/m2
20:49 51.1 °F /  10.6 °C 48.2 °F /  9 °C 29.94in /  1013.8hPa North 0.4mph /  0.6km/h 0.2mph /  0.3km/h 90% 0.00in /  0mm 0 W/m2
20:54 51.1 °F /  10.6 °C 48.2 °F /  9 °C 29.94in /  1013.8hPa North 1.5mph /  2.4km/h 1.3mph /  2.1km/h 90% 0.00in /  0mm 0 W/m2
20:59 50.9 °F /  10.5 °C 48.1 °F /  8.9 °C 29.94in /  1013.8hPa NW 2.3mph /  3.7km/h 2.2mph /  3.5km/h 90% 0.00in /  0mm 0 W/m2
21:04 50.9 °F /  10.5 °C 48.1 °F /  8.9 °C 29.94in /  1013.8hPa WNW 2.6mph /  4.2km/h 3mph /  4.8km/h 90% 0.00in /  0mm 0 W/m2
21:09 50.8 °F /  10.4 °C 48 °F /  8.9 °C 29.94in /  1013.8hPa NW 1.2mph /  1.9km/h 3mph /  4.8km/h 90% 0.00in /  0mm 0 W/m2
21:14 50.7 °F /  10.4 °C 48 °F /  8.9 °C 29.94in /  1013.8hPa NNW 1mph /  1.6km/h 2mph /  3.2km/h 90.2% 0.00in /  0mm 0 W/m2
21:19 50.7 °F /  10.4 °C 48.2 °F /  9 °C 29.94in /  1013.8hPa NNE 1.8mph /  2.9km/h 2mph /  3.2km/h 91% 0.00in /  0mm 0 W/m2
21:24 50.7 °F /  10.4 °C 48.2 °F /  9 °C 29.94in /  1013.8hPa Calm   2mph /  3.2km/h 90.8% 0.00in /  0mm 0 W/m2
21:29 50.7 °F /  10.4 °C 47.9 °F /  8.8 °C 29.94in /  1013.8hPa Calm     90% 0.00in /  0mm 0 W/m2
21:34 50.6 °F /  10.3 °C 47.8 °F /  8.8 °C 29.94in /  1013.8hPa Calm     90% 0.00in /  0mm 0 W/m2
21:39 50.5 °F /  10.3 °C 48 °F /  8.9 °C 29.94in /  1013.8hPa North 0.5mph /  0.8km/h 0.7mph /  1.1km/h 90.8% 0.00in /  0mm 0 W/m2
21:44 50.5 °F /  10.3 °C 48 °F /  8.9 °C 29.94in /  1013.8hPa North 1.2mph /  1.9km/h 2mph /  3.2km/h 91% 0.00in /  0mm 0 W/m2
21:49 50.5 °F /  10.3 °C 48 °F /  8.9 °C 29.94in /  1013.8hPa NNE 1.5mph /  2.4km/h 2mph /  3.2km/h 91% 0.00in /  0mm 0 W/m2
21:54 50.5 °F /  10.3 °C 47.9 °F /  8.8 °C 29.94in /  1013.8hPa North 1.6mph /  2.6km/h 2mph /  3.2km/h 91% 0.00in /  0mm 0 W/m2
21:59 50.4 °F /  10.2 °C 47.8 °F /  8.8 °C 29.94in /  1013.8hPa WNW 0.2mph /  0.3km/h 2mph /  3.2km/h 91% 0.00in /  0mm 0 W/m2
22:04 50.3 °F /  10.2 °C 47.8 °F /  8.8 °C 29.94in /  1013.8hPa Calm     91% 0.00in /  0mm 0 W/m2
22:09 50.2 °F /  10.1 °C 47.7 °F /  8.7 °C 29.94in /  1013.8hPa SW 1.2mph /  1.9km/h 1.8mph /  2.9km/h 91% 0.00in /  0mm 0 W/m2
22:14 50.2 °F /  10.1 °C 47.7 °F /  8.7 °C 29.94in /  1013.8hPa WNW 2.3mph /  3.7km/h 3mph /  4.8km/h 91% 0.00in /  0mm 0 W/m2
22:19 50.2 °F /  10.1 °C 47.7 °F /  8.7 °C 29.94in /  1013.8hPa North 1.5mph /  2.4km/h 3mph /  4.8km/h 91% 0.00in /  0mm 0 W/m2
22:24 50 °F /  10 °C 47.5 °F /  8.6 °C 29.93in /  1013.4hPa NW 1.6mph /  2.6km/h 2mph /  3.2km/h 91% 0.00in /  0mm 0 W/m2
22:29 50 °F /  10 °C 47.5 °F /  8.6 °C 29.93in /  1013.4hPa WNW 2.1mph /  3.4km/h 2mph /  3.2km/h 91% 0.00in /  0mm 0 W/m2
22:34 49.8 °F /  9.9 °C 47.3 °F /  8.5 °C 29.93in /  1013.4hPa NW 0.9mph /  1.4km/h 2mph /  3.2km/h 91% 0.00in /  0mm 0 W/m2
22:39 49.7 °F /  9.8 °C 47.2 °F /  8.4 °C 29.93in /  1013.4hPa NNW 1.6mph /  2.6km/h 2mph /  3.2km/h 91% 0.00in /  0mm 0 W/m2
22:44 49.6 °F /  9.8 °C 47.5 °F /  8.6 °C 29.93in /  1013.4hPa North 0.1mph /  0.2km/h 2mph /  3.2km/h 92.3% 0.00in /  0mm 0 W/m2
22:49 49.6 °F /  9.8 °C 47.7 °F /  8.7 °C 29.93in /  1013.4hPa North 1.8mph /  2.9km/h 1mph /  1.6km/h 93% 0.00in /  0mm 0 W/m2
22:54 49.5 °F /  9.7 °C 47.6 °F /  8.7 °C 29.93in /  1013.4hPa NNW 1.6mph /  2.6km/h 2mph /  3.2km/h 93% 0.00in /  0mm 0 W/m2
22:59 49.4 °F /  9.7 °C 47.4 °F /  8.6 °C 29.93in /  1013.4hPa NNW 2mph /  3.2km/h 2mph /  3.2km/h 93% 0.00in /  0mm 0 W/m2
23:04 49.3 °F /  9.6 °C 47.3 °F /  8.5 °C 29.93in /  1013.4hPa North 2.6mph /  4.2km/h 2mph /  3.2km/h 93% 0.00in /  0mm 0 W/m2
23:09 49.3 °F /  9.6 °C 47.5 °F /  8.6 °C 29.93in /  1013.4hPa NNE 3.6mph /  5.8km/h 3.6mph /  5.8km/h 93.8% 0.00in /  0mm 0 W/m2
23:14 49.4 °F /  9.7 °C 47.7 °F /  8.7 °C 29.93in /  1013.4hPa NE 3.5mph /  5.6km/h 5mph /  8km/h 94% 0.00in /  0mm 0 W/m2
23:19 49.5 °F /  9.7 °C 47.8 °F /  8.8 °C 29.93in /  1013.4hPa NE 3.1mph /  5km/h 3mph /  4.8km/h 94% 0.00in /  0mm 0 W/m2
23:24 49.5 °F /  9.7 °C 47.8 °F /  8.8 °C 29.93in /  1013.4hPa NE 2.8mph /  4.5km/h 3mph /  4.8km/h 94% 0.00in /  0mm 0 W/m2
23:29 49.5 °F /  9.7 °C 47.8 °F /  8.8 °C 29.92in /  1013.1hPa NNE 3mph /  4.8km/h 3mph /  4.8km/h 94% 0.00in /  0mm 0 W/m2
23:34 49.5 °F /  9.7 °C 47.8 °F /  8.8 °C 29.93in /  1013.4hPa NNE 0.1mph /  0.2km/h 3mph /  4.8km/h 94% 0.00in /  0mm 0 W/m2
23:39 49.4 °F /  9.7 °C 47.7 °F /  8.7 °C 29.93in /  1013.4hPa North 0.3mph /  0.5km/h   94% 0.00in /  0mm 0 W/m2
23:44 49.3 °F /  9.6 °C 47.7 °F /  8.7 °C 29.93in /  1013.4hPa NNW 1.2mph /  1.9km/h 1mph /  1.6km/h 94% 0.00in /  0mm 0 W/m2
23:49 49.2 °F /  9.6 °C 47.5 °F /  8.6 °C 29.93in /  1013.4hPa NW 0.9mph /  1.4km/h 2mph /  3.2km/h 94% 0.00in /  0mm 0 W/m2
23:54 49.1 °F /  9.5 °C 47.4 °F /  8.6 °C 29.93in /  1013.4hPa NW 1.6mph /  2.6km/h 2mph /  3.2km/h 94% 0.00in /  0mm 0 W/m2
23:59 49 °F /  9.4 °C 47.4 °F /  8.6 °C 29.93in /  1013.4hPa North 0.6mph /  1km/h 2mph /  3.2km/h 94% 0.00in /  0mm 0 W/m2
Knjazevac, Serbia
Compliments of Weather Underground - 4 mb